Alread, Arkansas
Current Conditions -  °F | °C
As of 1:15 PM on Monday 22 Dec 2014 (Local Time) from KCCA Reporting Station
Light Rain Light Rain  
Wind Chill: 50°   Ceiling: 900
Heat Index: 50°   Visibility: 1mi
Dew Point: 50°   Wind: 7mph
Humidity: 100%   Direction: 150°SSE
Pressure: 29.59"   Gusts: NA
Location:  35.6269°N, 92.5508°W
Report Text: KCCA 221915Z AUTO 15006KT 1SM -RA OVC009 10/10 A2959 RMK AO2
Loading
Personal Weather Stations






























Interactive Weather Map New forecast layout! Learn more

10-Day Weather Forecast

Advertisements
Track Severe Weather on mobile